createdAt,value
2023-07-25T00:00:44.831Z,20.88
2023-07-25T00:03:12.202Z,20.83
2023-07-25T00:05:39.430Z,20.71
2023-07-25T00:08:06.766Z,20.73
2023-07-25T00:10:35.204Z,20.71
2023-07-25T00:13:02.556Z,20.71
2023-07-25T00:15:29.830Z,20.64
2023-07-25T00:17:58.198Z,20.63
2023-07-25T00:20:25.622Z,20.53
2023-07-25T00:22:53.002Z,20.56
2023-07-25T00:25:20.454Z,20.54
2023-07-25T00:27:47.816Z,20.53
2023-07-25T00:30:15.235Z,20.49
2023-07-25T00:32:42.852Z,20.54
2023-07-25T00:35:10.204Z,20.68
2023-07-25T00:37:37.525Z,20.87
2023-07-25T00:40:05.208Z,20.90
2023-07-25T00:42:32.643Z,20.91
2023-07-25T00:45:00.088Z,20.83
2023-07-25T00:47:27.473Z,20.80
2023-07-25T00:49:54.932Z,20.76
2023-07-25T00:52:22.266Z,20.64
2023-07-25T00:54:50.658Z,20.54
2023-07-25T00:57:18.627Z,20.49
2023-07-25T00:59:46.000Z,20.46
2023-07-25T01:02:14.150Z,20.39
2023-07-25T01:04:41.409Z,20.46
2023-07-25T01:07:08.819Z,20.54
2023-07-25T01:09:40.656Z,20.58
2023-07-25T01:12:08.372Z,20.57
2023-07-25T01:14:35.750Z,20.64
2023-07-25T01:17:13.609Z,20.70
2023-07-25T01:19:42.708Z,20.71
2023-07-25T01:22:10.188Z,20.78
2023-07-25T01:24:38.503Z,20.77
2023-07-25T01:27:06.121Z,20.61
2023-07-25T01:29:33.445Z,20.53
2023-07-25T01:32:00.785Z,20.53
2023-07-25T01:34:28.137Z,20.60
2023-07-25T01:36:55.455Z,20.54
2023-07-25T01:39:22.891Z,20.61
2023-07-25T01:41:50.141Z,20.64
2023-07-25T01:44:17.433Z,20.58
2023-07-25T01:46:44.732Z,20.56
2023-07-25T01:49:12.944Z,20.61
2023-07-25T01:51:40.256Z,20.74
2023-07-25T01:54:07.622Z,20.85
2023-07-25T01:56:35.256Z,21.01
2023-07-25T01:59:02.615Z,21.09
2023-07-25T02:01:30.968Z,21.21
2023-07-25T02:03:58.872Z,20.94
2023-07-25T02:06:26.111Z,20.40
2023-07-25T02:08:53.442Z,20.22
2023-07-25T02:11:20.728Z,20.13
2023-07-25T02:13:48.051Z,20.26
2023-07-25T02:16:15.339Z,20.15
2023-07-25T02:18:42.740Z,20.15
2023-07-25T02:21:09.991Z,20.05
2023-07-25T02:23:37.328Z,20.04
2023-07-25T02:26:04.663Z,20.02
2023-07-25T02:28:31.984Z,19.93
2023-07-25T02:30:59.475Z,19.72
2023-07-25T02:33:27.091Z,19.82
2023-07-25T02:35:54.374Z,19.75
2023-07-25T02:38:21.777Z,19.75
2023-07-25T02:40:49.041Z,19.83
2023-07-25T02:43:16.365Z,19.72
2023-07-25T02:45:43.631Z,19.72
2023-07-25T02:48:11.044Z,19.71
2023-07-25T02:50:38.292Z,19.67
2023-07-25T02:53:05.620Z,19.61
2023-07-25T02:55:32.882Z,19.57
2023-07-25T02:58:00.266Z,19.54
2023-07-25T03:00:27.544Z,19.60
2023-07-25T03:02:54.906Z,19.65
2023-07-25T03:05:22.520Z,19.65
2023-07-25T03:07:49.903Z,19.60
2023-07-25T03:10:17.188Z,19.57
2023-07-25T03:12:44.541Z,19.44
2023-07-25T03:15:11.816Z,19.38
2023-07-25T03:17:39.241Z,19.46
2023-07-25T03:20:08.018Z,19.44
2023-07-25T03:22:35.507Z,19.46
2023-07-25T03:25:03.324Z,19.41
2023-07-25T03:27:30.801Z,19.41
2023-07-25T03:29:58.085Z,19.47
2023-07-25T03:32:25.472Z,19.48
2023-07-25T03:34:52.780Z,19.54
2023-07-25T03:37:20.142Z,19.58
2023-07-25T03:39:47.605Z,19.62
2023-07-25T03:42:14.900Z,19.71
2023-07-25T03:44:42.165Z,19.83
2023-07-25T03:47:09.549Z,19.91
2023-07-25T03:49:36.845Z,19.99
2023-07-25T03:52:04.328Z,19.98
2023-07-25T03:54:31.772Z,20.02
2023-07-25T03:56:59.157Z,20.06
2023-07-25T03:59:26.412Z,20.12
2023-07-25T04:01:53.789Z,20.19
2023-07-25T04:04:21.134Z,20.25
2023-07-25T04:06:48.566Z,20.29
2023-07-25T04:09:15.791Z,20.30
2023-07-25T04:11:43.166Z,20.29
2023-07-25T04:14:10.461Z,20.32
2023-07-25T04:16:37.927Z,20.50
2023-07-25T04:19:05.342Z,20.68
2023-07-25T04:21:33.088Z,20.76
2023-07-25T04:24:00.551Z,20.67
2023-07-25T04:26:27.954Z,20.77
2023-07-25T04:28:55.268Z,20.92
2023-07-25T04:31:22.607Z,20.94
2023-07-25T04:33:50.270Z,20.94
2023-07-25T04:36:17.712Z,20.99
2023-07-25T04:38:45.009Z,21.05
2023-07-25T04:41:12.357Z,21.22
2023-07-25T04:43:39.610Z,21.22
2023-07-25T04:46:06.976Z,21.32
2023-07-25T04:48:34.261Z,21.36
2023-07-25T04:51:02.299Z,21.56
2023-07-25T04:53:29.568Z,21.49
2023-07-25T04:55:56.937Z,21.53
2023-07-25T04:58:24.165Z,21.52
2023-07-25T05:00:51.462Z,21.63
2023-07-25T05:03:18.964Z,21.52
2023-07-25T05:05:46.425Z,21.55
2023-07-25T05:08:13.991Z,21.69
2023-07-25T05:10:42.266Z,21.62
2023-07-25T05:13:09.573Z,21.65
2023-07-25T05:15:38.769Z,21.72
2023-07-25T05:18:06.016Z,21.82
2023-07-25T05:20:33.307Z,22.00
2023-07-25T05:23:00.521Z,21.97
2023-07-25T05:25:27.854Z,22.08
2023-07-25T05:27:55.188Z,22.13
2023-07-25T05:30:22.555Z,22.14
2023-07-25T05:32:50.693Z,22.22
2023-07-25T05:35:18.149Z,22.22
2023-07-25T05:37:45.458Z,22.25
2023-07-25T05:40:12.870Z,22.28
2023-07-25T05:42:40.141Z,22.27
2023-07-25T05:45:08.035Z,22.25
2023-07-25T05:47:35.362Z,22.28
2023-07-25T05:50:02.710Z,22.33
2023-07-25T05:52:29.976Z,22.21
2023-07-25T05:54:57.342Z,22.27
2023-07-25T05:57:24.637Z,22.24
2023-07-25T05:59:52.063Z,22.30
2023-07-25T06:02:19.343Z,22.27
2023-07-25T06:04:47.547Z,22.33
2023-07-25T06:07:15.419Z,22.22
2023-07-25T06:09:42.804Z,22.22
2023-07-25T06:12:10.315Z,22.25
2023-07-25T06:14:37.884Z,22.18
2023-07-25T06:17:05.360Z,22.05
2023-07-25T06:19:32.779Z,21.97
2023-07-25T06:22:00.062Z,21.97
2023-07-25T06:24:27.505Z,21.98
2023-07-25T06:26:54.721Z,21.94
2023-07-25T06:29:22.030Z,21.89
2023-07-25T06:31:49.372Z,21.87
2023-07-25T06:34:16.812Z,21.76
2023-07-25T06:36:44.315Z,21.72
2023-07-25T06:39:11.811Z,21.67
2023-07-25T06:41:39.906Z,21.62
2023-07-25T06:44:15.209Z,21.53
2023-07-25T06:46:42.865Z,21.57
2023-07-25T06:49:10.107Z,21.50
2023-07-25T06:51:37.457Z,21.42
2023-07-25T06:54:04.921Z,21.47
2023-07-25T06:56:32.215Z,21.41
2023-07-25T06:59:00.146Z,21.36
2023-07-25T07:01:29.527Z,21.25
2023-07-25T07:03:57.281Z,21.18
2023-07-25T07:06:24.630Z,20.91
2023-07-25T07:08:51.929Z,20.58
2023-07-25T07:11:19.401Z,20.22
2023-07-25T07:13:46.682Z,20.00
2023-07-25T07:16:14.103Z,19.95
2023-07-25T07:18:41.426Z,19.81
2023-07-25T07:21:09.102Z,19.64
2023-07-25T07:23:36.360Z,19.37
2023-07-25T07:26:03.761Z,19.31
2023-07-25T07:28:31.169Z,19.38
2023-07-25T07:30:59.284Z,19.35
2023-07-25T07:33:27.490Z,19.31
2023-07-25T07:35:54.803Z,19.19
2023-07-25T07:38:22.270Z,19.09
2023-07-25T07:40:49.751Z,19.00
2023-07-25T07:43:17.179Z,19.02
2023-07-25T07:45:44.485Z,19.03
2023-07-25T07:48:11.879Z,19.07
2023-07-25T07:50:39.233Z,19.03
2023-07-25T07:53:06.515Z,19.04
2023-07-25T07:55:34.307Z,19.11
2023-07-25T07:58:01.560Z,19.04
2023-07-25T08:00:29.068Z,18.98
2023-07-25T08:02:56.410Z,18.93
2023-07-25T08:05:23.925Z,18.88
2023-07-25T08:07:51.265Z,18.98
2023-07-25T08:10:19.126Z,18.93
2023-07-25T08:12:46.464Z,18.92
2023-07-25T08:15:14.005Z,18.86
2023-07-25T08:17:41.356Z,18.88
2023-07-25T08:20:09.048Z,18.89
2023-07-25T08:22:36.346Z,18.86
2023-07-25T08:25:03.760Z,18.81
2023-07-25T08:27:31.233Z,18.82
2023-07-25T08:29:58.588Z,18.90
2023-07-25T08:32:27.169Z,18.92
2023-07-25T08:34:54.589Z,18.83
2023-07-25T08:37:21.839Z,18.72
2023-07-25T08:39:49.316Z,18.69
2023-07-25T08:42:16.617Z,18.76
2023-07-25T08:44:43.904Z,18.68
2023-07-25T08:47:21.047Z,18.75
2023-07-25T08:49:51.080Z,18.68
2023-07-25T08:52:19.092Z,18.59
2023-07-25T08:54:47.086Z,18.42
2023-07-25T08:57:14.755Z,18.41
2023-07-25T08:59:42.122Z,18.48
2023-07-25T09:02:10.359Z,18.77
2023-07-25T09:04:37.648Z,19.07
2023-07-25T09:07:05.374Z,19.35
2023-07-25T09:09:32.613Z,19.60
2023-07-25T09:11:59.887Z,19.81
2023-07-25T09:14:27.189Z,20.04
2023-07-25T09:16:55.092Z,20.23
2023-07-25T09:19:22.361Z,20.71
2023-07-25T09:21:50.813Z,21.14
2023-07-25T09:24:18.276Z,21.49
2023-07-25T09:26:52.251Z,21.83
2023-07-25T09:29:21.968Z,21.75
2023-07-25T09:31:50.135Z,21.86
2023-07-25T09:34:20.548Z,21.60
2023-07-25T09:36:48.921Z,21.59
2023-07-25T09:39:17.255Z,21.22
2023-07-25T09:41:46.629Z,21.25
2023-07-25T09:44:14.363Z,21.18
2023-07-25T09:46:54.439Z,20.94
2023-07-25T09:49:23.886Z,20.76
2023-07-25T09:52:01.118Z,20.61
2023-07-25T09:54:28.489Z,20.66
2023-07-25T09:56:55.741Z,20.68
2023-07-25T09:59:23.747Z,20.60
2023-07-25T10:01:55.238Z,20.63
2023-07-25T10:04:22.636Z,20.50
2023-07-25T10:06:49.836Z,20.39
2023-07-25T10:09:17.231Z,20.47
2023-07-25T10:11:44.541Z,20.43
2023-07-25T10:14:11.878Z,20.36
2023-07-25T10:16:39.312Z,20.25
2023-07-25T10:19:07.192Z,20.28
2023-07-25T10:21:47.868Z,20.28
2023-07-25T10:24:15.451Z,20.32
2023-07-25T10:26:58.911Z,20.30
2023-07-25T10:29:39.357Z,20.36
2023-07-25T10:32:09.566Z,20.22
2023-07-25T10:34:53.240Z,20.25
2023-07-25T10:37:21.494Z,20.06
2023-07-25T10:40:02.331Z,19.99
2023-07-25T10:43:00.000Z,19.99
2023-07-25T10:45:32.760Z,20.05
2023-07-25T10:48:01.563Z,20.18
2023-07-25T10:50:29.676Z,20.18
2023-07-25T10:52:56.900Z,20.22
2023-07-25T10:55:24.362Z,20.08
2023-07-25T10:58:10.590Z,20.06
2023-07-25T11:00:38.461Z,20.06
2023-07-25T11:03:26.362Z,20.10
2023-07-25T11:05:53.783Z,20.19
2023-07-25T11:08:21.010Z,20.16
2023-07-25T11:10:49.086Z,20.10
2023-07-25T11:13:16.446Z,20.15
2023-07-25T11:15:47.171Z,19.83
2023-07-25T11:18:15.252Z,19.62
2023-07-25T11:20:42.561Z,19.41
2023-07-25T11:23:09.888Z,19.38
2023-07-25T11:25:37.110Z,19.41
2023-07-25T11:28:04.528Z,19.48
2023-07-25T11:30:31.851Z,19.71
2023-07-25T11:32:59.284Z,19.93
2023-07-25T11:35:26.822Z,20.23
2023-07-25T11:38:01.771Z,20.76
2023-07-25T11:40:29.828Z,21.26
2023-07-25T11:42:57.513Z,21.43
2023-07-25T11:45:25.622Z,21.43
2023-07-25T11:47:53.010Z,21.57
2023-07-25T11:50:26.360Z,21.76
2023-07-25T11:52:57.565Z,21.92
2023-07-25T11:55:26.047Z,22.21
2023-07-25T11:57:53.641Z,22.62
2023-07-25T12:00:21.606Z,22.81
2023-07-25T12:02:48.975Z,22.40
2023-07-25T12:05:27.687Z,22.30
2023-07-25T12:07:59.476Z,22.33
2023-07-25T12:10:27.819Z,22.33
2023-07-25T12:12:56.335Z,22.05
2023-07-25T12:15:24.658Z,21.93
2023-07-25T12:17:52.090Z,21.97
2023-07-25T12:20:23.731Z,22.03
2023-07-25T12:22:51.038Z,22.15
2023-07-25T12:25:19.262Z,22.10
2023-07-25T12:27:48.067Z,22.03
2023-07-25T12:30:15.752Z,21.86
2023-07-25T12:32:43.165Z,21.59
2023-07-25T12:35:11.915Z,21.29
2023-07-25T12:37:39.299Z,21.26
2023-07-25T12:40:07.150Z,21.16
2023-07-25T12:42:34.487Z,21.09
2023-07-25T12:45:09.475Z,21.05
2023-07-25T12:47:38.290Z,21.12
2023-07-25T12:50:05.897Z,21.08
2023-07-25T12:52:33.255Z,21.09
2023-07-25T12:55:00.632Z,21.04
2023-07-25T12:57:30.590Z,21.07
2023-07-25T12:59:57.944Z,20.99
2023-07-25T13:02:25.274Z,20.94
2023-07-25T13:04:52.875Z,20.90
2023-07-25T13:07:20.225Z,20.94
2023-07-25T13:09:47.614Z,20.98
2023-07-25T13:12:14.898Z,21.02
2023-07-25T13:14:42.351Z,20.83
2023-07-25T13:17:09.755Z,20.73
2023-07-25T13:19:37.093Z,20.46
2023-07-25T13:22:04.472Z,20.18
2023-07-25T13:24:31.773Z,20.23
2023-07-25T13:26:59.082Z,20.36
2023-07-25T13:29:26.446Z,20.40
2023-07-25T13:31:53.740Z,20.46
2023-07-25T13:34:21.095Z,20.44
2023-07-25T13:36:48.339Z,20.58
2023-07-25T13:39:15.688Z,21.04
2023-07-25T13:41:43.189Z,21.43
2023-07-25T13:44:10.564Z,21.72
2023-07-25T13:46:37.861Z,21.97
2023-07-25T13:49:05.192Z,22.22
2023-07-25T13:51:32.661Z,22.13
2023-07-25T13:54:00.232Z,22.42
2023-07-25T13:56:27.477Z,22.92
2023-07-25T13:58:54.753Z,23.26
2023-07-25T14:01:22.053Z,23.40
2023-07-25T14:03:49.390Z,23.60
2023-07-25T14:06:16.605Z,23.21
2023-07-25T14:08:43.976Z,23.33
2023-07-25T14:11:11.182Z,23.13
2023-07-25T14:13:38.538Z,23.23
2023-07-25T14:16:06.742Z,23.06
2023-07-25T14:18:34.179Z,23.03
2023-07-25T14:21:01.549Z,23.19
2023-07-25T14:23:28.935Z,23.28
2023-07-25T14:25:56.203Z,23.20
2023-07-25T14:28:23.594Z,23.09
2023-07-25T14:30:51.092Z,23.02
2023-07-25T14:33:21.619Z,23.00
2023-07-25T14:35:49.225Z,23.20
2023-07-25T14:38:16.475Z,23.24
2023-07-25T14:40:43.768Z,23.19
2023-07-25T14:43:10.960Z,23.36
2023-07-25T14:45:38.377Z,23.55
2023-07-25T14:48:05.994Z,23.40
2023-07-25T14:50:33.804Z,23.37
2023-07-25T14:53:01.062Z,23.26
2023-07-25T14:55:28.738Z,23.19
2023-07-25T14:57:56.096Z,23.12
2023-07-25T15:00:23.457Z,23.24
2023-07-25T15:02:50.894Z,23.43
2023-07-25T15:05:18.432Z,23.51
2023-07-25T15:07:45.830Z,23.30
2023-07-25T15:10:13.193Z,23.13
2023-07-25T15:12:40.473Z,22.86
2023-07-25T15:15:08.405Z,22.55
2023-07-25T15:17:36.506Z,22.42
2023-07-25T15:20:05.146Z,22.48
2023-07-25T15:22:32.598Z,22.45
2023-07-25T15:25:00.027Z,22.40
2023-07-25T15:27:28.162Z,22.47
2023-07-25T15:29:55.719Z,22.45
2023-07-25T15:32:23.033Z,22.35
2023-07-25T15:34:50.562Z,22.31
2023-07-25T15:37:17.864Z,22.24
2023-07-25T15:39:45.410Z,22.27
2023-07-25T15:42:13.052Z,22.20
2023-07-25T15:44:40.508Z,22.07
2023-07-25T15:47:07.770Z,22.13
2023-07-25T15:49:35.088Z,22.14
2023-07-25T15:52:02.347Z,22.08
2023-07-25T15:54:29.737Z,22.03
2023-07-25T15:56:57.420Z,21.96
2023-07-25T15:59:25.460Z,22.21
2023-07-25T16:01:53.933Z,21.92
2023-07-25T16:04:21.559Z,21.98
2023-07-25T16:06:49.020Z,22.13
2023-07-25T16:09:16.358Z,22.00
2023-07-25T16:11:43.648Z,22.33
2023-07-25T16:14:10.965Z,22.38
2023-07-25T16:16:38.411Z,22.47
2023-07-25T16:19:05.884Z,22.52
2023-07-25T16:21:33.653Z,22.49
2023-07-25T16:24:02.052Z,22.45
2023-07-25T16:26:29.326Z,22.45
2023-07-25T16:28:56.594Z,22.37
2023-07-25T16:31:32.462Z,22.31
2023-07-25T16:34:00.478Z,21.97
2023-07-25T16:36:27.690Z,22.01
2023-07-25T16:38:55.031Z,22.07
2023-07-25T16:41:22.638Z,22.01
2023-07-25T16:43:50.087Z,21.92
2023-07-25T16:46:17.369Z,22.04
2023-07-25T16:48:44.889Z,22.03
2023-07-25T16:51:12.205Z,22.13
2023-07-25T16:53:39.571Z,22.04
2023-07-25T16:56:06.972Z,21.83
2023-07-25T16:58:34.814Z,21.87
2023-07-25T17:01:02.688Z,21.96
2023-07-25T17:03:30.370Z,21.98
2023-07-25T17:05:57.724Z,21.94
2023-07-25T17:08:25.102Z,21.79
2023-07-25T17:10:52.459Z,21.80
2023-07-25T17:13:20.980Z,21.90
2023-07-25T17:15:48.433Z,21.92
2023-07-25T17:18:15.841Z,21.93
2023-07-25T17:20:43.128Z,21.84
2023-07-25T17:23:11.761Z,21.76
2023-07-25T17:25:39.822Z,21.80
2023-07-25T17:28:07.129Z,21.82
2023-07-25T17:30:34.504Z,21.94
2023-07-25T17:33:02.192Z,21.89
2023-07-25T17:35:37.643Z,21.98
2023-07-25T17:38:06.207Z,21.80
2023-07-25T17:40:33.469Z,21.75
2023-07-25T17:43:00.872Z,21.53
2023-07-25T17:45:28.194Z,21.47
2023-07-25T17:47:55.592Z,21.52
2023-07-25T17:50:22.886Z,21.29
2023-07-25T17:52:50.263Z,21.24
2023-07-25T17:55:17.521Z,21.25
2023-07-25T17:57:44.940Z,21.31
2023-07-25T18:00:12.662Z,21.29
2023-07-25T18:02:40.196Z,21.21
2023-07-25T18:05:07.776Z,21.24
2023-07-25T18:07:35.263Z,21.26
2023-07-25T18:10:02.646Z,21.28
2023-07-25T18:12:30.038Z,21.32
2023-07-25T18:14:57.338Z,21.31
2023-07-25T18:17:24.738Z,21.28
2023-07-25T18:19:52.088Z,21.16
2023-07-25T18:22:19.403Z,21.08
2023-07-25T18:24:46.661Z,21.12
2023-07-25T18:27:14.069Z,21.29
2023-07-25T18:29:41.370Z,21.38
2023-07-25T18:32:08.907Z,21.22
2023-07-25T18:34:36.119Z,20.97
2023-07-25T18:37:03.757Z,21.07
2023-07-25T18:39:31.000Z,20.97
2023-07-25T18:41:58.465Z,20.87
2023-07-25T18:44:25.754Z,20.73
2023-07-25T18:46:53.277Z,20.76
2023-07-25T18:49:20.595Z,20.81
2023-07-25T18:51:47.995Z,20.74
2023-07-25T18:54:15.329Z,20.83
2023-07-25T18:56:42.734Z,20.88
2023-07-25T18:59:10.061Z,20.88
2023-07-25T19:01:37.439Z,20.80
2023-07-25T19:04:04.915Z,20.74
2023-07-25T19:06:32.481Z,20.68
2023-07-25T19:09:00.215Z,20.60
2023-07-25T19:11:27.861Z,20.56
2023-07-25T19:13:55.124Z,20.44
2023-07-25T19:16:22.591Z,20.43
2023-07-25T19:18:49.853Z,20.44
2023-07-25T19:21:17.332Z,20.36
2023-07-25T19:23:44.819Z,20.32
2023-07-25T19:26:12.146Z,20.43
2023-07-25T19:28:39.680Z,20.46
2023-07-25T19:31:07.407Z,20.40
2023-07-25T19:33:34.742Z,20.23
2023-07-25T19:36:02.215Z,20.28
2023-07-25T19:38:29.785Z,20.50
2023-07-25T19:40:57.153Z,20.60
2023-07-25T19:43:24.672Z,20.51
2023-07-25T19:45:56.141Z,20.49
2023-07-25T19:48:23.580Z,20.53
2023-07-25T19:50:50.964Z,20.51
2023-07-25T19:53:19.509Z,20.40
2023-07-25T19:55:54.672Z,20.49
2023-07-25T19:58:22.106Z,20.49
2023-07-25T20:00:49.475Z,20.43
2023-07-25T20:03:17.020Z,20.33
2023-07-25T20:05:44.554Z,20.16
2023-07-25T20:08:11.970Z,20.09
2023-07-25T20:10:39.322Z,19.96
2023-07-25T20:13:07.333Z,19.79
2023-07-25T20:15:34.753Z,19.86
2023-07-25T20:18:02.188Z,19.88
2023-07-25T20:20:29.451Z,20.04
2023-07-25T20:22:56.764Z,20.04
2023-07-25T20:25:24.172Z,20.08
2023-07-25T20:27:51.494Z,20.13
2023-07-25T20:30:18.719Z,20.20
2023-07-25T20:32:46.091Z,20.22
2023-07-25T20:35:13.536Z,20.30
2023-07-25T20:37:40.948Z,20.37
2023-07-25T20:40:09.764Z,20.39
2023-07-25T20:42:37.530Z,20.34
2023-07-25T20:45:05.144Z,20.32
2023-07-25T20:47:34.559Z,20.28
2023-07-25T20:50:01.944Z,20.30
2023-07-25T20:52:29.256Z,20.23
2023-07-25T20:54:56.488Z,20.19
2023-07-25T20:57:23.845Z,20.18
2023-07-25T20:59:51.122Z,20.22
2023-07-25T21:02:18.421Z,20.28
2023-07-25T21:04:45.611Z,20.19
2023-07-25T21:07:13.017Z,20.09
2023-07-25T21:09:40.310Z,20.04
2023-07-25T21:12:08.062Z,20.10
2023-07-25T21:14:35.277Z,20.13
2023-07-25T21:17:02.727Z,20.08
2023-07-25T21:19:29.920Z,20.00
2023-07-25T21:21:57.286Z,20.04
2023-07-25T21:24:24.602Z,20.04
2023-07-25T21:26:51.986Z,20.08
2023-07-25T21:29:19.306Z,20.09
2023-07-25T21:31:46.711Z,20.16
2023-07-25T21:34:14.130Z,20.04
2023-07-25T21:36:42.622Z,19.99
2023-07-25T21:39:10.027Z,19.93
2023-07-25T21:41:37.466Z,20.00
2023-07-25T21:44:04.897Z,20.00
2023-07-25T21:46:32.452Z,19.95
2023-07-25T21:49:02.709Z,19.93
2023-07-25T21:51:30.048Z,19.88
2023-07-25T21:53:57.334Z,19.96
2023-07-25T21:56:24.833Z,20.02
2023-07-25T21:58:52.097Z,19.93
2023-07-25T22:01:19.458Z,19.95
2023-07-25T22:03:46.748Z,19.91
2023-07-25T22:06:14.133Z,19.88
2023-07-25T22:08:41.413Z,19.93
2023-07-25T22:11:08.740Z,19.92
2023-07-25T22:13:36.067Z,19.81
2023-07-25T22:16:03.939Z,19.83
2023-07-25T22:18:31.300Z,19.82
2023-07-25T22:20:59.815Z,19.91
2023-07-25T22:23:27.102Z,19.89
2023-07-25T22:26:01.421Z,19.88
2023-07-25T22:28:29.020Z,19.83
2023-07-25T22:30:56.298Z,19.88
2023-07-25T22:33:23.652Z,19.83
2023-07-25T22:35:50.872Z,19.89
2023-07-25T22:38:18.188Z,19.88
2023-07-25T22:40:46.060Z,19.83
2023-07-25T22:43:13.437Z,19.82
2023-07-25T22:45:40.727Z,19.85
2023-07-25T22:48:08.035Z,19.88
2023-07-25T22:50:35.316Z,19.89
2023-07-25T22:53:02.627Z,19.82
2023-07-25T22:55:29.934Z,19.68
2023-07-25T22:57:57.290Z,19.64
2023-07-25T23:00:24.691Z,19.61
2023-07-25T23:05:19.694Z,19.58
2023-07-25T23:07:46.981Z,19.53
2023-07-25T23:10:14.304Z,19.46
2023-07-25T23:12:41.716Z,19.34
2023-07-25T23:15:14.499Z,19.40
2023-07-25T23:17:41.954Z,19.51
2023-07-25T23:20:09.670Z,19.46
2023-07-25T23:22:37.072Z,19.33
2023-07-25T23:25:04.756Z,19.35
2023-07-25T23:27:32.101Z,19.34
2023-07-25T23:29:59.941Z,19.44
2023-07-25T23:32:27.409Z,19.41
2023-07-25T23:34:55.298Z,19.40
2023-07-25T23:37:22.635Z,19.47
2023-07-25T23:39:49.879Z,19.54
2023-07-25T23:42:17.246Z,19.54
2023-07-25T23:44:44.467Z,19.50
2023-07-25T23:47:13.065Z,19.48
2023-07-25T23:49:40.532Z,19.35
2023-07-25T23:52:08.098Z,19.38
2023-07-25T23:54:35.363Z,19.33
2023-07-25T23:57:06.247Z,19.21
2023-07-25T23:59:33.685Z,19.11
